Time,TemperatureF,DewpointF,PressureIn,WindDirection,WindDirectionDegrees,WindSpeedMPH,WindSpeedGustMPH,Humidity,HourlyPrecipIn,Conditions,Clouds,dailyrainin,SoftwareType,DateUTC
2013-03-22 00:00:00,39.4,34.3,29.90,ESE,115,3.6,4.0,82,0.00,,CLR,0.00,VWS V14.01,2013-03-22 07:00:00,
2013-03-22 00:01:00,39.4,34.3,29.90,ESE,116,3.6,4.5,82,0.00,,CLR,0.00,VWS V14.01,2013-03-22 07:01:00,
2013-03-22 00:02:00,39.4,34.3,29.90,ESE,115,3.6,4.5,82,0.00,,CLR,0.00,VWS V14.01,2013-03-22 07:02:00,
2013-03-22 00:03:00,39.4,34.3,29.90,ESE,115,3.6,4.0,82,0.00,,CLR,0.00,VWS V14.01,2013-03-22 07:03:00,
2013-03-22 00:04:00,39.4,34.3,29.90,ESE,115,2.7,3.6,82,0.00,,CLR,0.00,VWS V14.01,2013-03-22 07:04:00,
2013-03-22 00:05:00,39.4,34.7,29.90,ESE,115,0.0,3.1,83,0.00,,CLR,0.00,VWS V14.01,2013-03-22 07:05:00,
2013-03-22 00:06:00,39.6,34.8,29.90,ESE,115,0.0,0.0,83,0.00,,CLR,0.00,VWS V14.01,2013-03-22 07:06:00,
2013-03-22 00:07:00,39.4,34.7,29.90,ESE,115,2.7,3.1,83,0.00,,CLR,0.00,VWS V14.01,2013-03-22 07:07:00,
2013-03-22 00:08:00,39.4,34.7,29.90,ESE,115,0.0,3.1,83,0.00,,CLR,0.00,VWS V14.01,2013-03-22 07:08:00,
2013-03-22 00:09:00,39.4,34.7,29.90,ESE,115,0.0,0.0,83,0.00,,CLR,0.00,VWS V14.01,2013-03-22 07:09:00,
2013-03-22 00:10:00,39.4,34.7,29.90,ESE,115,0.0,0.0,83,0.00,,CLR,0.00,VWS V14.01,2013-03-22 07:10:00,
2013-03-22 00:11:00,39.6,34.8,29.90,ESE,115,0.0,0.0,83,0.00,,CLR,0.00,VWS V14.01,2013-03-22 07:11:00,
2013-03-22 00:12:00,39.6,34.8,29.90,ESE,115,0.0,0.0,83,0.00,,CLR,0.00,VWS V14.01,2013-03-22 07:12:00,
2013-03-22 00:13:00,39.6,34.8,29.90,ESE,115,0.0,0.0,83,0.00,,CLR,0.00,VWS V14.01,2013-03-22 07:13:00,
2013-03-22 00:14:00,39.6,34.8,29.90,ESE,115,0.0,0.0,83,0.00,,CLR,0.00,VWS V14.01,2013-03-22 07:14:00,
2013-03-22 00:15:00,39.4,34.7,29.90,ESE,115,0.0,0.0,83,0.00,,CLR,0.00,VWS V14.01,2013-03-22 07:15:00,
2013-03-22 00:16:00,38.8,33.8,29.93,ESE,116,3.6,4.0,82,0.00,,CLR,0.00,VWS V14.01,2013-03-22 07:16:00,
2013-03-22 00:17:00,39.2,34.2,29.90,ESE,115,0.0,0.0,82,0.00,,CLR,0.00,VWS V14.01,2013-03-22 07:17:00,
2013-03-22 00:18:00,38.8,33.8,29.93,ESE,115,3.1,3.6,82,0.00,,CLR,0.00,VWS V14.01,2013-03-22 07:18:00,
2013-03-22 00:19:00,38.8,33.8,29.93,ESE,116,3.6,4.0,82,0.00,,CLR,0.00,VWS V14.01,2013-03-22 07:19:00,
2013-03-22 00:20:00,39.0,34.0,29.93,ESE,115,2.7,3.6,82,0.00,,CLR,0.00,VWS V14.01,2013-03-22 07:20:00,
2013-03-22 00:21:00,39.0,34.6,29.93,ESE,115,3.1,3.6,84,0.00,,CLR,0.00,VWS V14.01,2013-03-22 07:21:00,
2013-03-22 00:22:00,39.2,34.5,29.93,ESE,115,3.1,4.0,83,0.00,,CLR,0.00,VWS V14.01,2013-03-22 07:22:00,
2013-03-22 00:23:00,39.4,34.7,29.93,ESE,115,3.6,3.6,83,0.00,,CLR,0.00,VWS V14.01,2013-03-22 07:23:00,
2013-03-22 00:24:00,39.0,34.6,29.93,ESE,115,3.1,3.6,84,0.00,,CLR,0.00,VWS V14.01,2013-03-22 07:24:00,
2013-03-22 00:25:00,39.0,34.3,29.93,ESE,115,4.0,4.0,83,0.00,,CLR,0.00,VWS V14.01,2013-03-22 07:25:00,
2013-03-22 00:26:00,38.7,34.0,29.93,ESE,115,4.0,4.0,83,0.00,,CLR,0.00,VWS V14.01,2013-03-22 07:26:00,
2013-03-22 00:27:00,38.8,34.1,29.93,ESE,115,3.1,4.5,83,0.00,,CLR,0.00,VWS V14.01,2013-03-22 07:27:00,
2013-03-22 00:28:00,38.7,34.0,29.93,ESE,115,2.7,3.1,83,0.00,,CLR,0.00,VWS V14.01,2013-03-22 07:28:00,
2013-03-22 00:29:00,38.7,34.0,29.93,ESE,115,4.0,4.0,83,0.00,,CLR,0.00,VWS V14.01,2013-03-22 07:29:00,
2013-03-22 00:30:00,38.7,34.0,29.93,ESE,115,3.1,4.0,83,0.00,,CLR,0.00,VWS V14.01,2013-03-22 07:30:00,
2013-03-22 00:31:00,38.5,33.8,29.90,ESE,115,3.6,4.0,83,0.00,,CLR,0.00,VWS V14.01,2013-03-22 07:31:00,
2013-03-22 00:32:00,38.7,34.0,29.93,ESE,115,2.7,2.7,83,0.00,,CLR,0.00,VWS V14.01,2013-03-22 07:32:00,
2013-03-22 00:33:00,38.7,34.0,29.90,ESE,115,3.1,3.1,83,0.00,,CLR,0.00,VWS V14.01,2013-03-22 07:33:00,
2013-03-22 00:34:00,38.5,33.8,29.90,ESE,115,3.6,4.0,83,0.00,,CLR,0.00,VWS V14.01,2013-03-22 07:34:00,
2013-03-22 00:35:00,38.5,33.8,29.90,ESE,116,3.6,4.5,83,0.00,,CLR,0.00,VWS V14.01,2013-03-22 07:35:00,
2013-03-22 00:36:00,38.5,33.8,29.90,ESE,115,3.6,4.0,83,0.00,,CLR,0.00,VWS V14.01,2013-03-22 07:36:00,
2013-03-22 00:37:00,38.7,34.2,29.90,ESE,116,4.0,4.9,84,0.00,,CLR,0.00,VWS V14.01,2013-03-22 07:37:00,
2013-03-22 00:38:00,38.7,34.2,29.90,ESE,115,4.9,4.9,84,0.00,,CLR,0.00,VWS V14.01,2013-03-22 07:38:00,
2013-03-22 00:39:00,38.7,34.2,29.90,ESE,116,4.0,4.9,84,0.00,,CLR,0.00,VWS V14.01,2013-03-22 07:39:00,
2013-03-22 00:40:00,38.7,34.2,29.90,ESE,116,3.6,4.5,84,0.00,,CLR,0.00,VWS V14.01,2013-03-22 07:40:00,
2013-03-22 00:41:00,38.7,34.2,29.90,ESE,115,4.5,4.5,84,0.00,,CLR,0.00,VWS V14.01,2013-03-22 07:41:00,
2013-03-22 00:42:00,38.7,34.2,29.90,ESE,115,0.0,0.0,84,0.00,,CLR,0.00,VWS V14.01,2013-03-22 07:42:00,
2013-03-22 00:43:00,38.7,34.2,29.90,ESE,115,0.0,3.1,84,0.00,,CLR,0.00,VWS V14.01,2013-03-22 07:43:00,
2013-03-22 00:44:00,38.7,34.2,29.90,ESE,115,0.0,0.0,84,0.00,,CLR,0.00,VWS V14.01,2013-03-22 07:44:00,
2013-03-22 00:45:00,38.7,34.2,29.90,ESE,115,0.0,0.0,84,0.00,,CLR,0.00,VWS V14.01,2013-03-22 07:45:00,
2013-03-22 00:46:00,38.7,34.2,29.90,ESE,115,0.0,0.0,84,0.00,,CLR,0.00,VWS V14.01,2013-03-22 07:46:00,
2013-03-22 00:47:00,38.8,34.7,29.90,ESE,115,0.0,0.0,85,0.00,,CLR,0.00,VWS V14.01,2013-03-22 07:47:00,
2013-03-22 00:48:00,38.8,34.7,29.90,ESE,115,3.1,4.0,85,0.00,,CLR,0.00,VWS V14.01,2013-03-22 07:48:00,
2013-03-22 00:49:00,38.8,34.7,29.90,ESE,116,0.0,3.1,85,0.00,,CLR,0.00,VWS V14.01,2013-03-22 07:49:00,
2013-03-22 00:50:00,38.8,34.7,29.90,ESE,115,0.0,0.0,85,0.00,,CLR,0.00,VWS V14.01,2013-03-22 07:50:00,
2013-03-22 00:51:00,38.8,34.7,29.90,ESE,115,0.0,0.0,85,0.00,,CLR,0.00,VWS V14.01,2013-03-22 07:51:00,
2013-03-22 00:52:00,37.9,33.5,29.90,ESE,115,4.9,4.9,84,0.00,,CLR,0.00,VWS V14.01,2013-03-22 07:52:00,
2013-03-22 00:53:00,38.3,34.2,29.90,ESE,115,4.0,4.0,85,0.00,,CLR,0.00,VWS V14.01,2013-03-22 07:53:00,
2013-03-22 00:54:00,38.1,33.7,29.90,ESE,115,4.5,4.9,84,0.00,,CLR,0.00,VWS V14.01,2013-03-22 07:54:00,
2013-03-22 00:55:00,37.9,33.5,29.90,ESE,115,4.9,4.9,84,0.00,,CLR,0.00,VWS V14.01,2013-03-22 07:55:00,
2013-03-22 00:56:00,37.9,33.5,29.90,ESE,115,4.9,5.4,84,0.00,,CLR,0.00,VWS V14.01,2013-03-22 07:56:00,
2013-03-22 00:57:00,38.3,34.2,29.90,ESE,115,4.5,5.4,85,0.00,,CLR,0.00,VWS V14.01,2013-03-22 07:57:00,
2013-03-22 00:58:00,38.1,33.7,29.90,ESE,115,3.6,4.9,84,0.00,,CLR,0.00,VWS V14.01,2013-03-22 07:58:00,
2013-03-22 00:59:00,38.1,34.0,29.90,ESE,115,4.0,4.9,85,0.00,,CLR,0.00,VWS V14.01,2013-03-22 07:59:00,
2013-03-22 01:00:00,38.3,34.2,29.90,ESE,115,4.5,5.4,85,0.00,,CLR,0.00,VWS V14.01,2013-03-22 08:00:00,
2013-03-22 01:01:00,38.1,34.0,29.90,ESE,116,4.5,4.5,85,0.00,,CLR,0.00,VWS V14.01,2013-03-22 08:01:00,
2013-03-22 01:02:00,37.9,33.8,29.90,ESE,116,3.6,4.0,85,0.00,,CLR,0.00,VWS V14.01,2013-03-22 08:02:00,
2013-03-22 01:03:00,37.9,33.8,29.90,ESE,115,3.6,4.5,85,0.00,,CLR,0.00,VWS V14.01,2013-03-22 08:03:00,
2013-03-22 01:04:00,37.9,33.8,29.90,ESE,115,3.1,4.0,85,0.00,,CLR,0.00,VWS V14.01,2013-03-22 08:04:00,
2013-03-22 01:05:00,37.9,33.8,29.90,ESE,116,3.6,4.0,85,0.00,,CLR,0.00,VWS V14.01,2013-03-22 08:05:00,
2013-03-22 01:06:00,38.1,34.0,29.90,ESE,115,3.1,4.0,85,0.00,,CLR,0.00,VWS V14.01,2013-03-22 08:06:00,
2013-03-22 01:07:00,37.9,33.8,29.90,ESE,115,4.0,4.5,85,0.00,,CLR,0.00,VWS V14.01,2013-03-22 08:07:00,
2013-03-22 01:08:00,37.9,34.1,29.90,ESE,115,3.6,4.0,86,0.00,,CLR,0.00,VWS V14.01,2013-03-22 08:08:00,
2013-03-22 01:09:00,37.9,34.1,29.90,ESE,115,3.6,4.0,86,0.00,,CLR,0.00,VWS V14.01,2013-03-22 08:09:00,
2013-03-22 01:10:00,37.9,34.1,29.90,ESE,115,4.0,4.0,86,0.00,,CLR,0.00,VWS V14.01,2013-03-22 08:10:00,
2013-03-22 01:11:00,37.9,34.1,29.90,ESE,115,3.6,4.0,86,0.00,,CLR,0.00,VWS V14.01,2013-03-22 08:11:00,
2013-03-22 01:12:00,37.9,34.1,29.90,ESE,115,3.1,3.6,86,0.00,,CLR,0.00,VWS V14.01,2013-03-22 08:12:00,
2013-03-22 01:13:00,38.1,34.3,29.90,ESE,115,3.1,3.1,86,0.00,,CLR,0.00,VWS V14.01,2013-03-22 08:13:00,
2013-03-22 01:14:00,38.3,34.8,29.90,ESE,115,3.6,4.5,87,0.00,,CLR,0.00,VWS V14.01,2013-03-22 08:14:00,
2013-03-22 01:15:00,38.3,34.8,29.90,ESE,115,4.0,4.0,87,0.00,,CLR,0.00,VWS V14.01,2013-03-22 08:15:00,
2013-03-22 01:16:00,38.3,34.8,29.90,ESE,115,3.6,4.5,87,0.00,,CLR,0.00,VWS V14.01,2013-03-22 08:16:00,
2013-03-22 01:17:00,38.1,34.6,29.90,ESE,115,4.9,4.9,87,0.00,,CLR,0.00,VWS V14.01,2013-03-22 08:17:00,
2013-03-22 01:18:00,38.1,34.6,29.90,ESE,115,4.0,4.9,87,0.00,,CLR,0.00,VWS V14.01,2013-03-22 08:18:00,
2013-03-22 01:19:00,37.9,34.4,29.90,ESE,115,4.9,5.4,87,0.00,,CLR,0.00,VWS V14.01,2013-03-22 08:19:00,
2013-03-22 01:20:00,38.1,34.6,29.90,ESE,115,4.0,4.9,87,0.00,,CLR,0.00,VWS V14.01,2013-03-22 08:20:00,
2013-03-22 01:21:00,37.9,34.4,29.90,ESE,115,4.9,5.4,87,0.00,,CLR,0.00,VWS V14.01,2013-03-22 08:21:00,
2013-03-22 01:22:00,37.8,34.2,29.90,ESE,116,5.4,5.4,87,0.00,,CLR,0.00,VWS V14.01,2013-03-22 08:22:00,
2013-03-22 01:23:00,37.9,34.1,29.90,ESE,115,4.5,5.4,86,0.00,,CLR,0.00,VWS V14.01,2013-03-22 08:23:00,
2013-03-22 01:24:00,37.6,33.8,29.90,ESE,115,4.0,4.9,86,0.00,,CLR,0.00,VWS V14.01,2013-03-22 08:24:00,
2013-03-22 01:25:00,37.6,33.8,29.90,ESE,115,4.0,4.5,86,0.00,,CLR,0.00,VWS V14.01,2013-03-22 08:25:00,
2013-03-22 01:26:00,37.6,33.8,29.90,ESE,115,4.0,4.9,86,0.00,,CLR,0.00,VWS V14.01,2013-03-22 08:26:00,
2013-03-22 01:27:00,37.6,33.8,29.90,ESE,115,4.0,4.5,86,0.00,,CLR,0.00,VWS V14.01,2013-03-22 08:27:00,
2013-03-22 01:28:00,37.6,33.8,29.90,ESE,115,4.5,4.5,86,0.00,,CLR,0.00,VWS V14.01,2013-03-22 08:28:00,
2013-03-22 01:29:00,37.6,34.1,29.90,ESE,115,2.7,3.6,87,0.00,,CLR,0.00,VWS V14.01,2013-03-22 08:29:00,
2013-03-22 01:30:00,37.6,33.8,29.90,ESE,115,3.6,4.5,86,0.00,,CLR,0.00,VWS V14.01,2013-03-22 08:30:00,
2013-03-22 01:31:00,37.6,34.1,29.90,ESE,115,2.7,3.6,87,0.00,,CLR,0.00,VWS V14.01,2013-03-22 08:31:00,
2013-03-22 01:32:00,37.8,34.2,29.90,ESE,115,3.1,3.6,87,0.00,,CLR,0.00,VWS V14.01,2013-03-22 08:32:00,
2013-03-22 01:33:00,37.8,34.2,29.90,ESE,115,2.7,3.6,87,0.00,,CLR,0.00,VWS V14.01,2013-03-22 08:33:00,
2013-03-22 01:34:00,37.9,34.4,29.90,ESE,115,3.1,3.1,87,0.00,,CLR,0.00,VWS V14.01,2013-03-22 08:34:00,
2013-03-22 01:35:00,37.9,34.4,29.90,ESE,115,0.0,0.0,87,0.00,,CLR,0.00,VWS V14.01,2013-03-22 08:35:00,
2013-03-22 01:36:00,37.9,34.4,29.90,ESE,116,0.0,3.1,87,0.00,,CLR,0.00,VWS V14.01,2013-03-22 08:36:00,
2013-03-22 01:37:00,37.9,34.4,29.90,ESE,115,0.0,0.0,87,0.00,,CLR,0.00,VWS V14.01,2013-03-22 08:37:00,
2013-03-22 01:38:00,37.9,34.7,29.90,ESE,115,0.0,0.0,88,0.00,,CLR,0.00,VWS V14.01,2013-03-22 08:38:00,
2013-03-22 01:39:00,37.9,34.7,29.90,ESE,115,0.0,0.0,88,0.00,,CLR,0.00,VWS V14.01,2013-03-22 08:39:00,
2013-03-22 01:40:00,38.1,34.9,29.90,ESE,115,0.0,0.0,88,0.00,,CLR,0.00,VWS V14.01,2013-03-22 08:40:00,
2013-03-22 01:41:00,37.9,34.7,29.90,ESE,116,0.0,0.0,88,0.00,,CLR,0.00,VWS V14.01,2013-03-22 08:41:00,
2013-03-22 01:42:00,38.1,34.9,29.90,ESE,115,0.0,0.0,88,0.00,,CLR,0.00,VWS V14.01,2013-03-22 08:42:00,
2013-03-22 01:43:00,38.1,34.9,29.90,ESE,115,0.0,0.0,88,0.00,,CLR,0.00,VWS V14.01,2013-03-22 08:43:00,
2013-03-22 01:44:00,37.9,34.7,29.90,ESE,115,0.0,0.0,88,0.00,,CLR,0.00,VWS V14.01,2013-03-22 08:44:00,
2013-03-22 01:45:00,37.4,33.9,29.90,ESE,115,4.5,4.5,87,0.00,,CLR,0.00,VWS V14.01,2013-03-22 08:45:00,
2013-03-22 01:46:00,37.6,34.3,29.90,ESE,115,0.0,0.0,88,0.00,,CLR,0.00,VWS V14.01,2013-03-22 08:46:00,
2013-03-22 01:47:00,37.4,33.9,29.90,ESE,115,4.5,4.5,87,0.00,,CLR,0.00,VWS V14.01,2013-03-22 08:47:00,
2013-03-22 01:48:00,37.2,33.7,29.90,ESE,115,3.6,4.5,87,0.00,,CLR,0.00,VWS V14.01,2013-03-22 08:48:00,
2013-03-22 01:49:00,37.0,33.5,29.90,ESE,116,4.0,4.9,87,0.00,,CLR,0.00,VWS V14.01,2013-03-22 08:49:00,
2013-03-22 01:50:00,37.0,33.5,29.90,ESE,115,3.6,4.5,87,0.00,,CLR,0.00,VWS V14.01,2013-03-22 08:50:00,
2013-03-22 01:51:00,37.0,33.2,29.90,ESE,115,4.5,4.5,86,0.00,,CLR,0.00,VWS V14.01,2013-03-22 08:51:00,
2013-03-22 01:52:00,37.0,33.5,29.90,ESE,115,3.6,4.5,87,0.00,,CLR,0.00,VWS V14.01,2013-03-22 08:52:00,
2013-03-22 01:53:00,37.0,33.5,29.90,ESE,115,4.0,4.5,87,0.00,,CLR,0.00,VWS V14.01,2013-03-22 08:53:00,
2013-03-22 01:54:00,37.2,33.7,29.90,ESE,115,4.0,4.5,87,0.00,,CLR,0.00,VWS V14.01,2013-03-22 08:54:00,
2013-03-22 01:55:00,37.4,34.2,29.90,ESE,115,3.6,4.0,88,0.00,,CLR,0.00,VWS V14.01,2013-03-22 08:55:00,
2013-03-22 01:56:00,37.4,33.9,29.90,ESE,115,4.0,4.0,87,0.00,,CLR,0.00,VWS V14.01,2013-03-22 08:56:00,
2013-03-22 01:57:00,37.4,34.2,29.90,ESE,115,3.6,4.0,88,0.00,,CLR,0.00,VWS V14.01,2013-03-22 08:57:00,
2013-03-22 01:58:00,37.4,34.2,29.90,ESE,115,4.0,4.5,88,0.00,,CLR,0.00,VWS V14.01,2013-03-22 08:58:00,
2013-03-22 02:00:00,37.2,34.0,29.93,ESE,114,4.5,4.9,88,0.00,,CLR,0.00,VWS V14.01,2013-03-22 09:00:00,
2013-03-22 02:01:00,37.2,34.0,29.90,ESE,115,4.0,4.5,88,0.00,,CLR,0.00,VWS V14.01,2013-03-22 09:01:00,
2013-03-22 02:02:00,37.2,34.0,29.93,ESE,114,4.5,4.9,88,0.00,,CLR,0.00,VWS V14.01,2013-03-22 09:02:00,
2013-03-22 02:03:00,37.2,34.0,29.93,ESE,115,4.9,4.9,88,0.00,,CLR,0.00,VWS V14.01,2013-03-22 09:03:00,
2013-03-22 02:04:00,37.2,34.0,29.93,ESE,116,5.4,5.4,88,0.00,,CLR,0.00,VWS V14.01,2013-03-22 09:04:00,
2013-03-22 02:05:00,37.2,34.0,29.93,ESE,119,3.6,5.4,88,0.00,,CLR,0.00,VWS V14.01,2013-03-22 09:05:00,
2013-03-22 02:06:00,37.2,34.0,29.93,ESE,119,5.4,5.4,88,0.00,,CLR,0.00,VWS V14.01,2013-03-22 09:06:00,
2013-03-22 02:07:00,37.2,34.0,29.93,ESE,119,3.6,5.4,88,0.00,,CLR,0.00,VWS V14.01,2013-03-22 09:07:00,
2013-03-22 02:08:00,37.4,34.5,29.93,ESE,118,3.6,3.6,89,0.00,,CLR,0.00,VWS V14.01,2013-03-22 09:08:00,
2013-03-22 02:09:00,37.2,34.3,29.93,ESE,118,2.7,4.0,89,0.00,,CLR,0.00,VWS V14.01,2013-03-22 09:09:00,
2013-03-22 02:10:00,36.9,33.7,29.93,ESE,118,3.6,4.5,88,0.00,,CLR,0.00,VWS V14.01,2013-03-22 09:10:00,
2013-03-22 02:12:00,36.9,33.7,29.93,ESE,118,3.6,4.5,88,0.00,,CLR,0.00,VWS V14.01,2013-03-22 09:12:00,
2013-03-22 02:13:00,36.9,33.7,29.93,ESE,118,3.1,3.6,88,0.00,,CLR,0.00,VWS V14.01,2013-03-22 09:13:00,
2013-03-22 02:14:00,37.0,33.8,29.93,ESE,118,3.1,3.6,88,0.00,,CLR,0.00,VWS V14.01,2013-03-22 09:14:00,
2013-03-22 02:15:00,37.0,33.8,29.93,ESE,118,3.1,3.6,88,0.00,,CLR,0.00,VWS V14.01,2013-03-22 09:15:00,
2013-03-22 02:16:00,37.0,34.1,29.93,ESE,119,3.1,3.6,89,0.00,,CLR,0.00,VWS V14.01,2013-03-22 09:16:00,
2013-03-22 02:17:00,37.0,34.1,29.93,ESE,118,2.7,3.1,89,0.00,,CLR,0.00,VWS V14.01,2013-03-22 09:17:00,
2013-03-22 02:18:00,37.0,34.1,29.93,ESE,119,3.1,3.6,89,0.00,,CLR,0.00,VWS V14.01,2013-03-22 09:18:00,
2013-03-22 02:19:00,37.2,34.3,29.93,ESE,119,4.5,4.5,89,0.00,,CLR,0.00,VWS V14.01,2013-03-22 09:19:00,
2013-03-22 02:20:00,37.2,34.3,29.93,ESE,118,3.6,4.5,89,0.00,,CLR,0.00,VWS V14.01,2013-03-22 09:20:00,
2013-03-22 02:21:00,37.4,34.5,29.93,ESE,118,3.6,4.0,89,0.00,,CLR,0.00,VWS V14.01,2013-03-22 09:21:00,
2013-03-22 02:22:00,37.2,34.3,29.93,ESE,118,4.0,4.5,89,0.00,,CLR,0.00,VWS V14.01,2013-03-22 09:22:00,
2013-03-22 02:23:00,37.4,34.5,29.93,ESE,118,3.6,4.0,89,0.00,,CLR,0.00,VWS V14.01,2013-03-22 09:23:00,
2013-03-22 02:24:00,37.4,34.5,29.93,ESE,118,4.5,4.5,89,0.00,,CLR,0.00,VWS V14.01,2013-03-22 09:24:00,
2013-03-22 02:25:00,37.2,34.3,29.93,ESE,118,4.5,4.5,89,0.00,,CLR,0.00,VWS V14.01,2013-03-22 09:25:00,
2013-03-22 02:26:00,36.9,33.9,29.93,ESE,119,4.5,4.9,89,0.00,,CLR,0.00,VWS V14.01,2013-03-22 09:26:00,
2013-03-22 02:27:00,37.0,34.1,29.93,ESE,119,4.5,4.9,89,0.00,,CLR,0.00,VWS V14.01,2013-03-22 09:27:00,
2013-03-22 02:28:00,36.9,33.9,29.93,ESE,119,4.5,4.9,89,0.00,,CLR,0.00,VWS V14.01,2013-03-22 09:28:00,
2013-03-22 02:29:00,36.9,33.9,29.93,ESE,118,3.6,4.5,89,0.00,,CLR,0.00,VWS V14.01,2013-03-22 09:29:00,
2013-03-22 02:30:00,36.7,33.8,29.93,ESE,118,3.6,4.0,89,0.00,,CLR,0.00,VWS V14.01,2013-03-22 09:30:00,
2013-03-22 02:31:00,36.9,33.9,29.93,ESE,118,4.0,4.0,89,0.00,,CLR,0.00,VWS V14.01,2013-03-22 09:31:00,
2013-03-22 02:32:00,36.7,33.8,29.93,ESE,119,3.1,4.5,89,0.00,,CLR,0.00,VWS V14.01,2013-03-22 09:32:00,
2013-03-22 02:33:00,36.7,33.8,29.93,ESE,119,3.1,4.5,89,0.00,,CLR,0.00,VWS V14.01,2013-03-22 09:33:00,
2013-03-22 02:34:00,36.7,33.8,29.93,ESE,118,3.6,4.0,89,0.00,,CLR,0.00,VWS V14.01,2013-03-22 09:34:00,
2013-03-22 02:35:00,36.7,33.8,29.93,ESE,118,4.5,4.9,89,0.00,,CLR,0.00,VWS V14.01,2013-03-22 09:35:00,
2013-03-22 02:36:00,36.7,33.8,29.93,ESE,118,4.5,4.5,89,0.00,,CLR,0.00,VWS V14.01,2013-03-22 09:36:00,
2013-03-22 02:37:00,36.5,33.6,29.93,ESE,119,4.0,4.9,89,0.00,,CLR,0.00,VWS V14.01,2013-03-22 09:37:00,
2013-03-22 02:38:00,36.5,33.6,29.93,ESE,119,4.0,4.9,89,0.00,,CLR,0.00,VWS V14.01,2013-03-22 09:38:00,
2013-03-22 02:39:00,36.5,33.6,29.93,ESE,119,4.0,4.9,89,0.00,,CLR,0.00,VWS V14.01,2013-03-22 09:39:00,
2013-03-22 02:40:00,36.5,33.6,29.93,ESE,118,4.9,5.4,89,0.00,,CLR,0.00,VWS V14.01,2013-03-22 09:40:00,
2013-03-22 02:41:00,36.5,33.6,29.93,ESE,118,4.5,4.9,89,0.00,,CLR,0.00,VWS V14.01,2013-03-22 09:41:00,
2013-03-22 02:42:00,36.5,33.6,29.93,ESE,118,4.0,4.9,89,0.00,,CLR,0.00,VWS V14.01,2013-03-22 09:42:00,
2013-03-22 02:43:00,36.7,34.0,29.93,ESE,118,4.5,4.9,90,0.00,,CLR,0.00,VWS V14.01,2013-03-22 09:43:00,
2013-03-22 02:44:00,36.7,33.8,29.93,ESE,118,4.5,4.5,89,0.00,,CLR,0.00,VWS V14.01,2013-03-22 09:44:00,
2013-03-22 02:45:00,36.7,34.0,29.93,ESE,118,4.5,4.9,90,0.00,,CLR,0.00,VWS V14.01,2013-03-22 09:45:00,
2013-03-22 02:46:00,36.7,34.0,29.93,ESE,118,4.5,4.5,90,0.00,,CLR,0.00,VWS V14.01,2013-03-22 09:46:00,
2013-03-22 02:47:00,36.5,33.8,29.93,ESE,118,4.0,4.5,90,0.00,,CLR,0.00,VWS V14.01,2013-03-22 09:47:00,
2013-03-22 02:48:00,36.1,33.5,29.93,ESE,118,3.6,4.5,90,0.00,,CLR,0.00,VWS V14.01,2013-03-22 09:48:00,
2013-03-22 02:49:00,36.3,33.7,29.93,ESE,118,2.7,4.5,90,0.00,,CLR,0.00,VWS V14.01,2013-03-22 09:49:00,
2013-03-22 02:50:00,36.3,33.7,29.93,ESE,118,4.5,4.5,90,0.00,,CLR,0.00,VWS V14.01,2013-03-22 09:50:00,
2013-03-22 02:51:00,36.3,33.7,29.93,ESE,118,2.7,4.5,90,0.00,,CLR,0.00,VWS V14.01,2013-03-22 09:51:00,
2013-03-22 02:52:00,36.5,33.8,29.93,ESE,118,4.0,4.0,90,0.00,,CLR,0.00,VWS V14.01,2013-03-22 09:52:00,
2013-03-22 02:53:00,36.7,34.0,29.93,ESE,118,3.6,4.0,90,0.00,,CLR,0.00,VWS V14.01,2013-03-22 09:53:00,
2013-03-22 02:54:00,36.3,34.0,29.93,ESE,118,3.6,4.0,91,0.00,,CLR,0.00,VWS V14.01,2013-03-22 09:54:00,
2013-03-22 02:55:00,36.5,34.1,29.93,ESE,118,3.6,4.0,91,0.00,,CLR,0.00,VWS V14.01,2013-03-22 09:55:00,
2013-03-22 02:56:00,36.3,34.0,29.93,ESE,118,3.6,4.0,91,0.00,,CLR,0.00,VWS V14.01,2013-03-22 09:56:00,
2013-03-22 02:57:00,36.3,34.0,29.93,ESE,118,4.0,4.5,91,0.00,,CLR,0.00,VWS V14.01,2013-03-22 09:57:00,
2013-03-22 02:58:00,36.3,34.0,29.93,ESE,118,4.9,4.9,91,0.00,,CLR,0.00,VWS V14.01,2013-03-22 09:58:00,
2013-03-22 02:59:00,36.1,33.8,29.93,ESE,118,4.5,4.9,91,0.00,,CLR,0.00,VWS V14.01,2013-03-22 09:59:00,
2013-03-22 03:00:00,36.3,34.0,29.93,ESE,118,4.9,4.9,91,0.00,,CLR,0.00,VWS V14.01,2013-03-22 10:00:00,
2013-03-22 03:01:00,36.1,33.8,29.93,ESE,118,4.5,4.9,91,0.00,,CLR,0.00,VWS V14.01,2013-03-22 10:01:00,
2013-03-22 03:03:00,36.1,33.8,29.93,ESE,119,4.5,4.9,91,0.00,,CLR,0.00,VWS V14.01,2013-03-22 10:03:00,
2013-03-22 03:04:00,35.8,33.1,29.93,ESE,118,4.0,4.9,90,0.00,,CLR,0.00,VWS V14.01,2013-03-22 10:04:00,
2013-03-22 03:05:00,35.8,33.4,29.93,ESE,118,4.5,4.9,91,0.00,,CLR,0.00,VWS V14.01,2013-03-22 10:05:00,
2013-03-22 03:06:00,35.8,33.1,29.93,ESE,118,4.0,4.9,90,0.00,,CLR,0.00,VWS V14.01,2013-03-22 10:06:00,
2013-03-22 03:07:00,35.8,33.4,29.93,ESE,118,4.5,4.9,91,0.00,,CLR,0.00,VWS V14.01,2013-03-22 10:07:00,
2013-03-22 03:08:00,36.0,33.6,29.93,ESE,118,4.5,4.9,91,0.00,,CLR,0.00,VWS V14.01,2013-03-22 10:08:00,
2013-03-22 03:09:00,36.1,33.8,29.93,ESE,118,4.0,4.9,91,0.00,,CLR,0.00,VWS V14.01,2013-03-22 10:09:00,
2013-03-22 03:10:00,36.1,33.8,29.93,ESE,118,0.0,2.7,91,0.00,,CLR,0.00,VWS V14.01,2013-03-22 10:10:00,
2013-03-22 03:14:00,36.1,34.0,29.93,ESE,118,4.9,5.4,92,0.00,,CLR,0.00,VWS V14.01,2013-03-22 10:14:00,
2013-03-22 03:20:00,35.8,33.7,29.90,ESE,117,2.7,2.7,92,0.00,,CLR,0.00,VWS V14.01,2013-03-22 10:20:00,
2013-03-22 03:25:00,35.8,33.7,29.90,ESE,117,4.5,4.5,92,0.00,,CLR,0.00,VWS V14.01,2013-03-22 10:25:00,
2013-03-22 03:30:00,35.6,33.2,29.90,ESE,116,4.5,4.9,91,0.00,,CLR,0.00,VWS V14.01,2013-03-22 10:30:00,
2013-03-22 03:36:00,35.8,33.7,29.90,ESE,113,4.5,4.9,92,0.00,,CLR,0.00,VWS V14.01,2013-03-22 10:36:00,
2013-03-22 03:41:00,36.1,34.3,29.90,ESE,102,4.0,4.0,93,0.00,,CLR,0.00,VWS V14.01,2013-03-22 10:41:00,
2013-03-22 03:46:00,35.6,33.8,29.90,ESE,102,0.0,0.0,93,0.00,,CLR,0.00,VWS V14.01,2013-03-22 10:46:00,
2013-03-22 03:51:00,35.8,34.0,29.90,ESE,102,0.0,0.0,93,0.00,,CLR,0.00,VWS V14.01,2013-03-22 10:51:00,
2013-03-22 03:56:00,35.4,33.6,29.90,East,101,0.0,0.0,93,0.00,,CLR,0.00,VWS V14.01,2013-03-22 10:56:00,
2013-03-22 04:01:00,34.9,32.8,29.90,East,101,0.0,2.7,92,0.00,,CLR,0.00,VWS V14.01,2013-03-22 11:01:00,
2013-03-22 04:06:00,35.2,33.2,29.90,ESE,102,3.1,3.6,92,0.00,,CLR,0.00,VWS V14.01,2013-03-22 11:06:00,
2013-03-22 04:11:00,35.4,33.6,29.90,ESE,102,4.0,4.5,93,0.00,,CLR,0.00,VWS V14.01,2013-03-22 11:11:00,
2013-03-22 04:16:00,34.7,32.9,29.90,East,101,3.1,4.5,93,0.00,,CLR,0.00,VWS V14.01,2013-03-22 11:16:00,
2013-03-22 04:22:00,34.5,32.4,29.90,East,101,3.6,4.0,92,0.00,,CLR,0.00,VWS V14.01,2013-03-22 11:22:00,
2013-03-22 04:27:00,35.2,33.4,29.90,ESE,104,4.0,5.8,93,0.00,,CLR,0.00,VWS V14.01,2013-03-22 11:27:00,
2013-03-22 04:32:00,34.5,32.7,29.90,ESE,104,4.0,5.4,93,0.00,,CLR,0.00,VWS V14.01,2013-03-22 11:32:00,
2013-03-22 04:37:00,34.9,33.1,29.90,ESE,104,0.0,0.0,93,0.00,,CLR,0.00,VWS V14.01,2013-03-22 11:37:00,
2013-03-22 04:43:00,34.5,33.0,29.90,ESE,104,0.0,0.0,94,0.00,,CLR,0.00,VWS V14.01,2013-03-22 11:43:00,
2013-03-22 04:48:00,34.3,32.8,29.93,ESE,104,0.0,0.0,94,0.00,,CLR,0.00,VWS V14.01,2013-03-22 11:48:00,
2013-03-22 04:53:00,34.3,32.5,29.93,ESE,104,3.1,3.6,93,0.00,,CLR,0.00,VWS V14.01,2013-03-22 11:53:00,
2013-03-22 04:58:00,33.8,32.0,29.93,ESE,104,4.5,4.9,93,0.00,,CLR,0.00,VWS V14.01,2013-03-22 11:58:00,
2013-03-22 05:04:00,33.4,31.4,29.93,ESE,104,3.6,4.0,92,0.00,,CLR,0.00,VWS V14.01,2013-03-22 12:04:00,
2013-03-22 05:09:00,33.8,32.0,29.93,ESE,104,4.0,4.5,93,0.00,,CLR,0.00,VWS V14.01,2013-03-22 12:09:00,
2013-03-22 05:14:00,34.2,32.3,29.93,ESE,104,3.6,4.9,93,0.00,,CLR,0.00,VWS V14.01,2013-03-22 12:14:00,
2013-03-22 05:19:00,33.8,32.0,29.93,ESE,104,3.1,3.6,93,0.00,,CLR,0.00,VWS V14.01,2013-03-22 12:19:00,
2013-03-22 05:24:00,33.6,31.8,29.93,ESE,104,0.0,0.0,93,0.00,,CLR,0.00,VWS V14.01,2013-03-22 12:24:00,
2013-03-22 05:29:00,33.6,31.8,29.93,ESE,104,3.6,4.0,93,0.00,,CLR,0.00,VWS V14.01,2013-03-22 12:29:00,
2013-03-22 05:34:00,33.3,31.5,29.93,ESE,104,3.6,4.0,93,0.00,,CLR,0.00,VWS V14.01,2013-03-22 12:34:00,
2013-03-22 05:39:00,33.1,31.3,29.93,ESE,104,3.6,4.0,93,0.00,,CLR,0.00,VWS V14.01,2013-03-22 12:39:00,
2013-03-22 05:45:00,33.4,31.6,29.93,ESE,104,3.1,4.5,93,0.00,,CLR,0.00,VWS V14.01,2013-03-22 12:45:00,
2013-03-22 05:50:00,33.1,31.3,29.93,ESE,104,3.6,4.5,93,0.00,,CLR,0.00,VWS V14.01,2013-03-22 12:50:00,
2013-03-22 05:55:00,33.1,31.5,29.93,ESE,104,2.7,4.0,94,0.00,,CLR,0.00,VWS V14.01,2013-03-22 12:55:00,
2013-03-22 06:00:00,33.3,31.7,29.93,ESE,104,3.6,3.6,94,0.00,,CLR,0.00,VWS V14.01,2013-03-22 13:00:00,
2013-03-22 06:05:00,32.9,31.4,29.93,ESE,104,3.6,4.5,94,0.00,,CLR,0.00,VWS V14.01,2013-03-22 13:05:00,
2013-03-22 06:10:00,32.7,31.2,29.93,ESE,104,3.6,4.0,94,0.00,,CLR,0.00,VWS V14.01,2013-03-22 13:10:00,
2013-03-22 06:15:00,32.5,31.0,29.93,ESE,104,3.6,3.6,94,0.00,,CLR,0.00,VWS V14.01,2013-03-22 13:15:00,
2013-03-22 06:20:00,32.7,31.2,29.93,ESE,104,3.6,4.0,94,0.00,,CLR,0.00,VWS V14.01,2013-03-22 13:20:00,
2013-03-22 06:25:00,32.2,30.6,29.93,ESE,104,4.0,4.0,94,0.00,,CLR,0.00,VWS V14.01,2013-03-22 13:25:00,
2013-03-22 06:31:00,32.5,31.0,29.93,ESE,104,3.6,3.6,94,0.00,,CLR,0.00,VWS V14.01,2013-03-22 13:31:00,
2013-03-22 06:36:00,32.5,31.0,29.93,ESE,104,3.6,4.0,94,0.00,,CLR,0.00,VWS V14.01,2013-03-22 13:36:00,
2013-03-22 06:41:00,32.5,31.0,29.93,ESE,104,4.0,4.0,94,0.00,,CLR,0.00,VWS V14.01,2013-03-22 13:41:00,
2013-03-22 06:46:00,32.7,31.5,29.93,ESE,105,3.1,3.6,95,0.00,,CLR,0.00,VWS V14.01,2013-03-22 13:46:00,
2013-03-22 06:51:00,32.5,31.3,29.93,ESE,104,3.1,3.6,95,0.00,,CLR,0.00,VWS V14.01,2013-03-22 13:51:00,
2013-03-22 06:57:00,32.4,30.8,29.93,ESE,104,3.6,4.5,94,0.00,,CLR,0.00,VWS V14.01,2013-03-22 13:57:00,
2013-03-22 07:03:00,32.2,30.6,29.93,ESE,104,3.6,4.0,94,0.00,,CLR,0.00,VWS V14.01,2013-03-22 14:03:00,
2013-03-22 07:08:00,31.8,30.3,29.93,ESE,105,3.6,4.0,94,0.00,,CLR,0.00,VWS V14.01,2013-03-22 14:08:00,
2013-03-22 07:13:00,31.8,30.3,29.93,ESE,104,4.0,4.0,94,0.00,,CLR,0.00,VWS V14.01,2013-03-22 14:13:00,
2013-03-22 07:19:00,32.0,30.5,29.93,ESE,104,3.1,3.6,94,0.00,,CLR,0.00,VWS V14.01,2013-03-22 14:19:00,
2013-03-22 07:24:00,32.2,30.6,29.93,ESE,104,2.7,3.6,94,0.00,,CLR,0.00,VWS V14.01,2013-03-22 14:24:00,
2013-03-22 07:29:00,32.5,31.3,29.93,ESE,104,4.0,4.5,95,0.00,,CLR,0.00,VWS V14.01,2013-03-22 14:29:00,
2013-03-22 07:34:00,32.2,30.9,29.93,ESE,104,4.5,4.9,95,0.00,,CLR,0.00,VWS V14.01,2013-03-22 14:34:00,
2013-03-22 07:39:00,32.5,31.0,29.93,ESE,104,3.1,4.0,94,0.00,,CLR,0.00,VWS V14.01,2013-03-22 14:39:00,
2013-03-22 07:44:00,33.1,31.8,29.93,ESE,104,3.6,4.5,95,0.00,,CLR,0.00,VWS V14.01,2013-03-22 14:44:00,
2013-03-22 07:49:00,33.6,32.3,29.96,ESE,104,4.0,4.5,95,0.00,,CLR,0.00,VWS V14.01,2013-03-22 14:49:00,
2013-03-22 07:54:00,33.8,32.3,29.96,ESE,104,2.7,3.1,94,0.00,,CLR,0.00,VWS V14.01,2013-03-22 14:54:00,
2013-03-22 08:00:00,34.7,33.2,29.96,ESE,104,0.0,0.0,94,0.00,,CLR,0.00,VWS V14.01,2013-03-22 15:00:00,
2013-03-22 08:05:00,35.2,33.4,29.96,ESE,104,0.0,0.0,93,0.00,,CLR,0.00,VWS V14.01,2013-03-22 15:05:00,
2013-03-22 08:10:00,35.4,33.1,29.96,ESE,104,3.1,3.6,91,0.00,,CLR,0.00,VWS V14.01,2013-03-22 15:10:00,
2013-03-22 08:15:00,36.0,33.0,29.96,ESE,104,3.1,3.1,89,0.00,,CLR,0.00,VWS V14.01,2013-03-22 15:15:00,
2013-03-22 08:20:00,36.5,33.3,29.96,ESE,104,3.1,3.6,88,0.00,,CLR,0.00,VWS V14.01,2013-03-22 15:20:00,
2013-03-22 08:25:00,37.4,33.9,29.96,ESE,105,3.6,3.6,87,0.00,,CLR,0.00,VWS V14.01,2013-03-22 15:25:00,
2013-03-22 08:30:00,37.9,34.1,29.96,ESE,103,3.6,3.6,86,0.00,,CLR,0.00,VWS V14.01,2013-03-22 15:30:00,
2013-03-22 08:35:00,38.8,35.0,29.96,ESE,104,2.7,2.7,86,0.00,,CLR,0.00,VWS V14.01,2013-03-22 15:35:00,
2013-03-22 08:41:00,40.1,36.3,29.96,ESE,104,0.0,0.0,86,0.00,,CLR,0.00,VWS V14.01,2013-03-22 15:41:00,
2013-03-22 08:46:00,40.8,37.0,29.96,ESE,104,0.0,0.0,86,0.00,,CLR,0.00,VWS V14.01,2013-03-22 15:46:00,
2013-03-22 08:51:00,42.1,37.9,29.96,ESE,104,0.0,0.0,85,0.00,,CLR,0.00,VWS V14.01,2013-03-22 15:51:00,
2013-03-22 08:57:00,43.3,39.1,29.96,ESE,104,3.1,3.1,85,0.00,,CLR,0.00,VWS V14.01,2013-03-22 15:57:00,
2013-03-22 09:03:00,44.8,40.5,29.96,ESE,102,0.0,0.0,85,0.00,,CLR,0.00,VWS V14.01,2013-03-22 16:03:00,
2013-03-22 09:08:00,45.7,40.2,29.96,NNW,337,0.0,0.0,81,0.00,,CLR,0.00,VWS V14.01,2013-03-22 16:08:00,
2013-03-22 09:13:00,46.8,40.9,29.96,WNW,302,4.0,4.5,80,0.00,,CLR,0.00,VWS V14.01,2013-03-22 16:13:00,
2013-03-22 09:18:00,46.6,31.3,29.96,NNW,333,6.9,10.1,55,0.00,,CLR,0.00,VWS V14.01,2013-03-22 16:18:00,
2013-03-22 09:23:00,47.3,25.4,29.96,NNW,337,4.5,6.7,42,0.00,,CLR,0.00,VWS V14.01,2013-03-22 16:23:00,
2013-03-22 09:28:00,48.0,24.3,29.96,NNW,330,6.3,7.4,39,0.00,,CLR,0.00,VWS V14.01,2013-03-22 16:28:00,
2013-03-22 09:33:00,48.7,23.0,29.96,NNW,336,10.5,11.0,36,0.00,,CLR,0.00,VWS V14.01,2013-03-22 16:33:00,
2013-03-22 09:38:00,49.1,23.3,29.96,NW,318,5.8,8.3,36,0.00,,CLR,0.00,VWS V14.01,2013-03-22 16:38:00,
2013-03-22 09:43:00,49.6,21.7,29.96,NW,317,11.0,11.0,33,0.00,,CLR,0.00,VWS V14.01,2013-03-22 16:43:00,
2013-03-22 09:48:00,50.0,21.3,29.96,NNW,327,8.3,11.6,32,0.00,,CLR,0.00,VWS V14.01,2013-03-22 16:48:00,
2013-03-22 09:53:00,50.4,20.9,29.96,NW,324,10.1,12.1,31,0.00,,CLR,0.00,VWS V14.01,2013-03-22 16:53:00,
2013-03-22 09:58:00,51.1,20.8,29.96,NW,325,6.7,10.1,30,0.00,,CLR,0.00,VWS V14.01,2013-03-22 16:58:00,
2013-03-22 10:04:00,51.8,19.8,29.96,NNW,335,10.5,13.9,28,0.00,,CLR,0.00,VWS V14.01,2013-03-22 17:04:00,
2013-03-22 10:10:00,52.5,20.4,29.96,NW,307,13.0,14.8,28,0.00,,CLR,0.00,VWS V14.01,2013-03-22 17:10:00,
2013-03-22 10:15:00,52.9,19.0,29.96,WNW,300,15.9,18.6,26,0.00,,CLR,0.00,VWS V14.01,2013-03-22 17:15:00,
2013-03-22 10:20:00,53.4,19.4,29.96,NW,313,11.2,16.3,26,0.00,,CLR,0.00,VWS V14.01,2013-03-22 17:20:00,
2013-03-22 10:25:00,53.4,19.4,29.96,NW,317,13.0,15.4,26,0.00,,CLR,0.00,VWS V14.01,2013-03-22 17:25:00,
2013-03-22 10:30:00,53.8,19.7,29.96,WNW,303,8.7,12.1,26,0.00,,CLR,0.00,VWS V14.01,2013-03-22 17:30:00,
2013-03-22 10:35:00,54.5,20.3,29.96,NW,318,9.6,14.8,26,0.00,,CLR,0.00,VWS V14.01,2013-03-22 17:35:00,
2013-03-22 10:40:00,55.2,20.0,29.96,NW,310,15.9,15.9,25,0.00,,CLR,0.00,VWS V14.01,2013-03-22 17:40:00,
2013-03-22 10:45:00,55.4,20.2,29.96,NNW,327,11.0,14.3,25,0.00,,CLR,0.00,VWS V14.01,2013-03-22 17:45:00,
2013-03-22 10:50:00,56.1,20.8,29.96,West,276,13.0,13.4,25,0.00,,CLR,0.00,VWS V14.01,2013-03-22 17:50:00,
2013-03-22 10:55:00,56.3,21.0,29.96,WNW,284,13.0,13.9,25,0.00,,CLR,0.00,VWS V14.01,2013-03-22 17:55:00,
2013-03-22 11:00:00,56.5,21.1,29.99,West,280,11.6,14.8,25,0.00,,CLR,0.00,VWS V14.01,2013-03-22 18:00:00,
2013-03-22 11:05:00,56.7,20.3,29.99,NNW,328,9.6,10.1,24,0.00,,CLR,0.00,VWS V14.01,2013-03-22 18:05:00,
2013-03-22 11:12:00,57.0,21.6,29.99,NW,320,11.2,13.9,25,0.00,,CLR,0.00,VWS V14.01,2013-03-22 18:12:00,
2013-03-22 11:17:00,57.0,20.6,29.99,NNW,336,12.1,14.8,24,0.00,,CLR,0.00,VWS V14.01,2013-03-22 18:17:00,
2013-03-22 11:22:00,57.4,21.9,29.99,WNW,292,7.8,12.1,25,0.00,,CLR,0.00,VWS V14.01,2013-03-22 18:22:00,
2013-03-22 11:27:00,57.6,21.1,29.99,WNW,292,9.6,11.6,24,0.00,,CLR,0.00,VWS V14.01,2013-03-22 18:27:00,
2013-03-22 11:33:00,58.1,22.5,29.96,West,268,10.1,15.4,25,0.00,,CLR,0.00,VWS V14.01,2013-03-22 18:33:00,
2013-03-22 11:38:00,58.6,22.0,29.96,NW,305,5.8,11.2,24,0.00,,CLR,0.00,VWS V14.01,2013-03-22 18:38:00,
2013-03-22 11:43:00,58.8,22.1,29.96,NW,321,11.0,13.0,24,0.00,,CLR,0.00,VWS V14.01,2013-03-22 18:43:00,
2013-03-22 11:48:00,59.2,22.4,29.96,WNW,297,13.9,16.3,24,0.00,,CLR,0.00,VWS V14.01,2013-03-22 18:48:00,
2013-03-22 11:53:00,59.4,22.6,29.96,WNW,283,11.0,13.4,24,0.00,,CLR,0.00,VWS V14.01,2013-03-22 18:53:00,
2013-03-22 11:58:00,59.7,22.9,29.96,NW,307,9.6,15.4,24,0.00,,CLR,0.00,VWS V14.01,2013-03-22 18:58:00,
2013-03-22 12:03:00,59.7,22.9,29.96,NW,305,14.8,15.4,24,0.00,,CLR,0.00,VWS V14.01,2013-03-22 19:03:00,
2013-03-22 12:08:00,59.9,23.0,29.96,NW,304,9.6,15.2,24,0.00,,CLR,0.00,VWS V14.01,2013-03-22 19:08:00,
2013-03-22 12:13:00,60.1,20.0,29.96,NW,322,10.5,15.2,21,0.00,,CLR,0.00,VWS V14.01,2013-03-22 19:13:00,
2013-03-22 12:19:00,59.5,20.7,29.96,NW,308,17.2,19.9,22,0.00,,CLR,0.00,VWS V14.01,2013-03-22 19:19:00,
2013-03-22 12:24:00,59.4,20.5,29.96,NNW,333,18.1,25.3,22,0.00,,CLR,0.00,VWS V14.01,2013-03-22 19:24:00,
2013-03-22 12:29:00,60.1,20.0,29.96,West,271,14.3,16.8,21,0.00,,CLR,0.00,VWS V14.01,2013-03-22 19:29:00,
2013-03-22 12:34:00,60.1,20.0,29.96,NW,324,18.1,19.5,21,0.00,,CLR,0.00,VWS V14.01,2013-03-22 19:34:00,
2013-03-22 12:39:00,60.1,17.7,29.96,NW,322,14.8,21.9,19,0.00,,CLR,0.00,VWS V14.01,2013-03-22 19:39:00,
2013-03-22 12:44:00,60.1,17.7,29.96,WNW,292,13.4,18.1,19,0.00,,CLR,0.00,VWS V14.01,2013-03-22 19:44:00,
2013-03-22 12:49:00,60.1,17.7,29.96,WNW,288,13.0,15.9,19,0.00,,CLR,0.00,VWS V14.01,2013-03-22 19:49:00,
2013-03-22 12:54:00,60.1,17.7,29.96,NNW,340,20.6,21.0,19,0.00,,CLR,0.00,VWS V14.01,2013-03-22 19:54:00,
2013-03-22 12:59:00,59.9,17.6,29.96,NNW,335,19.5,22.4,19,0.00,,CLR,0.00,VWS V14.01,2013-03-22 19:59:00,
2013-03-22 13:04:00,60.4,18.0,29.96,NW,306,15.9,19.0,19,0.00,,CLR,0.00,VWS V14.01,2013-03-22 20:04:00,
2013-03-22 13:09:00,60.8,18.3,29.96,NNW,328,17.2,21.0,19,0.00,,CLR,0.00,VWS V14.01,2013-03-22 20:09:00,
2013-03-22 13:14:00,60.6,18.2,29.96,NW,305,14.8,17.2,19,0.00,,CLR,0.00,VWS V14.01,2013-03-22 20:14:00,
2013-03-22 13:19:00,61.0,18.5,29.96,NW,309,7.8,13.9,19,0.00,,CLR,0.00,VWS V14.01,2013-03-22 20:19:00,
2013-03-22 13:25:00,61.2,18.6,29.96,WNW,293,13.4,17.2,19,0.00,,CLR,0.00,VWS V14.01,2013-03-22 20:25:00,
2013-03-22 13:30:00,61.0,18.5,29.96,WNW,297,17.2,18.1,19,0.00,,CLR,0.00,VWS V14.01,2013-03-22 20:30:00,
2013-03-22 13:35:00,61.3,18.8,29.96,WNW,298,15.2,19.0,19,0.00,,CLR,0.00,VWS V14.01,2013-03-22 20:35:00,
2013-03-22 13:40:00,61.7,19.0,29.96,WNW,282,17.7,17.7,19,0.00,,CLR,0.00,VWS V14.01,2013-03-22 20:40:00,
2013-03-22 13:45:00,61.9,17.9,29.96,NW,306,8.7,17.2,18,0.00,,CLR,0.00,VWS V14.01,2013-03-22 20:45:00,
2013-03-22 13:50:00,61.5,18.9,29.96,WNW,300,15.9,19.0,19,0.00,,CLR,0.00,VWS V14.01,2013-03-22 20:50:00,
2013-03-22 13:55:00,61.3,18.8,29.96,NNW,334,24.4,26.6,19,0.00,,CLR,0.00,VWS V14.01,2013-03-22 20:55:00,
2013-03-22 14:00:00,61.3,18.8,29.96,NNW,347,12.5,18.6,19,0.00,,CLR,0.00,VWS V14.01,2013-03-22 21:00:00,
2013-03-22 14:05:00,61.5,18.9,29.96,WNW,298,16.3,22.8,19,0.00,,CLR,0.00,VWS V14.01,2013-03-22 21:05:00,
2013-03-22 14:10:00,61.3,18.8,29.96,West,261,11.6,16.8,19,0.00,,CLR,0.00,VWS V14.01,2013-03-22 21:10:00,
2013-03-22 14:15:00,61.3,18.8,29.96,NW,313,15.9,20.6,19,0.00,,CLR,0.00,VWS V14.01,2013-03-22 21:15:00,
2013-03-22 14:20:00,61.9,21.5,29.96,NNW,342,10.1,13.0,21,0.00,,CLR,0.00,VWS V14.01,2013-03-22 21:20:00,
2013-03-22 14:25:00,61.7,17.8,29.96,NNW,333,15.2,19.9,18,0.00,,CLR,0.00,VWS V14.01,2013-03-22 21:25:00,
2013-03-22 14:32:00,61.5,18.9,29.93,WNW,293,14.8,16.8,19,0.00,,CLR,0.00,VWS V14.01,2013-03-22 21:32:00,
2013-03-22 14:37:00,61.9,17.9,29.93,NW,311,19.9,20.1,18,0.00,,CLR,0.00,VWS V14.01,2013-03-22 21:37:00,
2013-03-22 14:42:00,62.4,18.4,29.93,WNW,283,14.3,14.3,18,0.00,,CLR,0.00,VWS V14.01,2013-03-22 21:42:00,
2013-03-22 14:47:00,62.4,18.4,29.93,NW,324,7.4,14.3,18,0.00,,CLR,0.00,VWS V14.01,2013-03-22 21:47:00,
2013-03-22 14:52:00,62.6,18.5,29.93,NW,321,12.5,12.5,18,0.00,,CLR,0.00,VWS V14.01,2013-03-22 21:52:00,
2013-03-22 14:58:00,63.1,19.0,29.93,NW,313,13.0,19.0,18,0.00,,CLR,0.00,VWS V14.01,2013-03-22 21:58:00,
2013-03-22 15:03:00,63.0,18.8,29.93,NNW,331,10.1,16.3,18,0.00,,CLR,0.00,VWS V14.01,2013-03-22 22:03:00,
2013-03-22 15:08:00,62.8,18.7,29.93,NNW,332,14.3,21.5,18,0.00,,CLR,0.00,VWS V14.01,2013-03-22 22:08:00,
2013-03-22 15:13:00,62.8,18.7,29.93,WNW,296,15.4,16.3,18,0.00,,CLR,0.00,VWS V14.01,2013-03-22 22:13:00,
2013-03-22 15:18:00,63.0,18.8,29.93,WNW,288,13.9,19.5,18,0.00,,CLR,0.00,VWS V14.01,2013-03-22 22:18:00,
2013-03-22 15:23:00,62.8,18.7,29.93,West,280,14.3,24.2,18,0.00,,CLR,0.00,VWS V14.01,2013-03-22 22:23:00,
2013-03-22 15:28:00,62.2,18.2,29.93,NNW,337,15.2,22.4,18,0.00,,CLR,0.00,VWS V14.01,2013-03-22 22:28:00,
2013-03-22 15:34:00,62.1,18.1,29.93,NW,315,12.5,18.1,18,0.00,,CLR,0.00,VWS V14.01,2013-03-22 22:34:00,
2013-03-22 15:39:00,62.8,18.7,29.93,West,271,17.7,17.7,18,0.00,,CLR,0.00,VWS V14.01,2013-03-22 22:39:00,
2013-03-22 15:45:00,63.0,18.8,29.93,NW,315,13.0,16.3,18,0.00,,CLR,0.00,VWS V14.01,2013-03-22 22:45:00,
2013-03-22 15:50:00,63.1,19.0,29.93,WNW,282,10.1,18.6,18,0.00,,CLR,0.00,VWS V14.01,2013-03-22 22:50:00,
2013-03-22 15:55:00,63.1,19.0,29.93,NW,316,13.9,13.9,18,0.00,,CLR,0.00,VWS V14.01,2013-03-22 22:55:00,
2013-03-22 16:00:00,63.1,19.0,29.93,NW,305,10.5,16.3,18,0.00,,CLR,0.00,VWS V14.01,2013-03-22 23:00:00,
2013-03-22 16:05:00,63.0,18.8,29.93,NW,317,14.3,15.9,18,0.00,,CLR,0.00,VWS V14.01,2013-03-22 23:05:00,
2013-03-22 16:10:00,62.4,18.4,29.93,NW,320,12.5,15.2,18,0.00,,CLR,0.00,VWS V14.01,2013-03-22 23:10:00,
2013-03-22 16:15:00,62.6,18.5,29.93,WNW,288,12.1,19.9,18,0.00,,CLR,0.00,VWS V14.01,2013-03-22 23:15:00,
2013-03-22 16:20:00,62.6,18.5,29.93,NNW,340,12.5,14.8,18,0.00,,CLR,0.00,VWS V14.01,2013-03-22 23:20:00,
2013-03-22 16:25:00,62.2,18.2,29.93,NW,305,12.1,16.3,18,0.00,,CLR,0.00,VWS V14.01,2013-03-22 23:25:00,
2013-03-22 16:30:00,62.2,18.2,29.93,NW,317,18.1,21.0,18,0.00,,CLR,0.00,VWS V14.01,2013-03-22 23:30:00,
2013-03-22 16:35:00,61.9,17.9,29.93,NW,306,13.4,15.4,18,0.00,,CLR,0.00,VWS V14.01,2013-03-22 23:35:00,
2013-03-22 16:40:00,61.9,17.9,29.93,NW,321,16.3,18.1,18,0.00,,CLR,0.00,VWS V14.01,2013-03-22 23:40:00,
2013-03-22 16:46:00,61.9,17.9,29.93,NW,314,16.3,21.5,18,0.00,,CLR,0.00,VWS V14.01,2013-03-22 23:46:00,
2013-03-22 16:52:00,61.7,17.8,29.93,NNW,328,8.3,17.2,18,0.00,,CLR,0.00,VWS V14.01,2013-03-22 23:52:00,
2013-03-22 16:57:00,61.9,17.9,29.93,WNW,288,12.5,18.1,18,0.00,,CLR,0.00,VWS V14.01,2013-03-22 23:57:00,
2013-03-22 17:02:00,61.7,19.0,29.93,NW,311,16.3,20.6,19,0.00,,CLR,0.00,VWS V14.01,2013-03-23 00:02:00,
2013-03-22 17:07:00,61.5,18.9,29.93,WNW,295,15.2,20.6,19,0.00,,CLR,0.00,VWS V14.01,2013-03-23 00:07:00,
2013-03-22 17:13:00,61.3,18.8,29.93,WNW,300,14.8,21.5,19,0.00,,CLR,0.00,VWS V14.01,2013-03-23 00:13:00,
2013-03-22 17:18:00,61.2,18.6,29.93,NNW,335,16.3,16.8,19,0.00,,CLR,0.00,VWS V14.01,2013-03-23 00:18:00,
2013-03-22 17:24:00,61.0,18.5,29.93,NW,307,19.0,19.5,19,0.00,,CLR,0.00,VWS V14.01,2013-03-23 00:24:00,
2013-03-22 17:29:00,61.0,18.5,29.93,NW,322,15.9,21.9,19,0.00,,CLR,0.00,VWS V14.01,2013-03-23 00:29:00,
2013-03-22 17:35:00,60.8,18.3,29.93,NW,320,12.5,14.3,19,0.00,,CLR,0.00,VWS V14.01,2013-03-23 00:35:00,
2013-03-22 17:40:00,60.6,18.2,29.93,NW,307,14.8,17.7,19,0.00,,CLR,0.00,VWS V14.01,2013-03-23 00:40:00,
2013-03-22 17:46:00,60.4,18.0,29.93,NW,306,10.1,15.2,19,0.00,,CLR,0.00,VWS V14.01,2013-03-23 00:46:00,
2013-03-22 17:51:00,60.1,17.7,29.93,NW,316,11.2,14.8,19,0.00,,CLR,0.00,VWS V14.01,2013-03-23 00:51:00,
2013-03-22 17:56:00,59.9,17.6,29.93,NW,309,13.4,19.9,19,0.00,,CLR,0.00,VWS V14.01,2013-03-23 00:56:00,
2013-03-22 18:01:00,59.7,17.4,29.93,NW,306,14.8,16.3,19,0.00,,CLR,0.00,VWS V14.01,2013-03-23 01:01:00,
2013-03-22 18:06:00,59.7,17.4,29.93,WNW,295,12.5,17.2,19,0.00,,CLR,0.00,VWS V14.01,2013-03-23 01:06:00,
2013-03-22 18:11:00,59.7,17.4,29.93,WNW,302,13.0,13.0,19,0.00,,CLR,0.00,VWS V14.01,2013-03-23 01:11:00,
2013-03-22 18:16:00,59.7,17.4,29.93,West,272,13.4,17.7,19,0.00,,CLR,0.00,VWS V14.01,2013-03-23 01:16:00,
2013-03-22 18:21:00,59.7,17.4,29.93,NW,306,4.9,11.0,19,0.00,,CLR,0.00,VWS V14.01,2013-03-23 01:21:00,
2013-03-22 18:26:00,59.5,17.3,29.93,NW,309,6.3,12.1,19,0.00,,CLR,0.00,VWS V14.01,2013-03-23 01:26:00,
2013-03-22 18:31:00,59.5,17.3,29.93,WNW,298,6.7,7.4,19,0.00,,CLR,0.00,VWS V14.01,2013-03-23 01:31:00,
2013-03-22 18:36:00,59.2,17.0,29.93,WNW,302,6.7,9.2,19,0.00,,CLR,0.00,VWS V14.01,2013-03-23 01:36:00,
2013-03-22 18:41:00,59.0,16.8,29.93,NW,325,5.8,12.1,19,0.00,,CLR,0.00,VWS V14.01,2013-03-23 01:41:00,
2013-03-22 18:47:00,58.6,16.5,29.93,WNW,293,10.1,13.4,19,0.00,,CLR,0.00,VWS V14.01,2013-03-23 01:47:00,
2013-03-22 18:52:00,57.9,15.9,29.93,NW,310,9.2,11.6,19,0.00,,CLR,0.00,VWS V14.01,2013-03-23 01:52:00,
2013-03-22 18:56:00,57.6,15.6,29.93,NW,326,6.7,9.2,19,0.00,,CLR,0.00,VWS V14.01,2013-03-23 01:56:00,
2013-03-22 19:01:00,57.2,18.7,29.93,NNW,328,8.3,8.7,22,0.00,,CLR,0.00,VWS V14.01,2013-03-23 02:01:00,
2013-03-22 19:07:00,56.8,18.4,29.93,NW,313,6.7,7.4,22,0.00,,CLR,0.00,VWS V14.01,2013-03-23 02:07:00,
2013-03-22 19:12:00,56.5,18.1,29.93,NW,322,5.8,6.9,22,0.00,,CLR,0.00,VWS V14.01,2013-03-23 02:12:00,
2013-03-22 19:17:00,56.1,17.8,29.93,NW,325,4.5,6.7,22,0.00,,CLR,0.00,VWS V14.01,2013-03-23 02:17:00,
2013-03-22 19:22:00,55.6,17.4,29.93,NNW,332,6.3,6.7,22,0.00,,CLR,0.00,VWS V14.01,2013-03-23 02:22:00,
2013-03-22 19:27:00,55.0,16.9,29.93,NNW,335,6.3,7.4,22,0.00,,CLR,0.00,VWS V14.01,2013-03-23 02:27:00,
2013-03-22 19:32:00,54.5,17.5,29.93,NNW,339,6.9,7.4,23,0.00,,CLR,0.00,VWS V14.01,2013-03-23 02:32:00,
2013-03-22 19:37:00,54.3,17.3,29.93,NNW,337,5.8,5.8,23,0.00,,CLR,0.00,VWS V14.01,2013-03-23 02:37:00,
2013-03-22 19:42:00,53.4,18.5,29.93,NNW,337,0.0,3.6,25,0.00,,CLR,0.00,VWS V14.01,2013-03-23 02:42:00,
2013-03-22 19:47:00,51.4,18.6,29.93,NNW,337,0.0,3.1,27,0.00,,CLR,0.00,VWS V14.01,2013-03-23 02:47:00,
2013-03-22 19:53:00,49.3,20.7,29.93,NNW,337,4.0,4.5,32,0.00,,CLR,0.00,VWS V14.01,2013-03-23 02:53:00,
2013-03-22 19:58:00,48.2,22.5,29.93,North,351,4.0,5.8,36,0.00,,CLR,0.00,VWS V14.01,2013-03-23 02:58:00,
2013-03-22 20:03:00,48.0,23.0,29.93,NNW,342,4.5,6.7,37,0.00,,CLR,0.00,VWS V14.01,2013-03-23 03:03:00,
2013-03-22 20:08:00,48.2,23.8,29.93,NNW,340,6.3,8.7,38,0.00,,CLR,0.00,VWS V14.01,2013-03-23 03:08:00,
2013-03-22 20:13:00,47.1,23.5,29.93,North,10,4.0,4.9,39,0.00,,CLR,0.00,VWS V14.01,2013-03-23 03:13:00,
2013-03-22 20:18:00,46.6,23.0,29.93,NNE,22,0.0,3.1,39,0.00,,CLR,0.00,VWS V14.01,2013-03-23 03:18:00,
2013-03-22 20:23:00,46.4,23.4,29.93,NNE,19,3.1,3.6,40,0.00,,CLR,0.00,VWS V14.01,2013-03-23 03:23:00,
2013-03-22 20:28:00,46.4,22.8,29.93,NNE,21,0.0,3.6,39,0.00,,CLR,0.00,VWS V14.01,2013-03-23 03:28:00,
2013-03-22 20:33:00,46.2,22.6,29.93,NNE,20,2.7,4.0,39,0.00,,CLR,0.00,VWS V14.01,2013-03-23 03:33:00,
2013-03-22 20:38:00,46.0,23.1,29.93,NNE,21,3.1,3.6,40,0.00,,CLR,0.00,VWS V14.01,2013-03-23 03:38:00,
2013-03-22 20:44:00,45.7,22.8,29.93,NNE,21,3.6,4.5,40,0.00,,CLR,0.00,VWS V14.01,2013-03-23 03:44:00,
2013-03-22 20:49:00,45.5,23.2,29.96,NE,36,4.0,4.9,41,0.00,,CLR,0.00,VWS V14.01,2013-03-23 03:49:00,
2013-03-22 20:54:00,45.1,22.3,29.96,ENE,63,3.6,4.0,40,0.00,,CLR,0.00,VWS V14.01,2013-03-23 03:54:00,
2013-03-22 21:00:00,45.1,21.7,29.96,ENE,63,4.0,4.9,39,0.00,,CLR,0.00,VWS V14.01,2013-03-23 04:00:00,
2013-03-22 21:03:00,45.1,22.3,29.96,ENE,63,4.9,5.4,40,0.00,,CLR,0.00,VWS V14.01,2013-03-23 04:03:00,
2013-03-22 21:07:00,44.6,22.4,29.96,ENE,63,3.6,4.5,41,0.00,,CLR,0.00,VWS V14.01,2013-03-23 04:07:00,
2013-03-22 21:12:00,44.4,22.8,29.96,ENE,63,4.9,5.4,42,0.00,,CLR,0.00,VWS V14.01,2013-03-23 04:12:00,
2013-03-22 21:17:00,44.2,23.2,29.96,ENE,66,4.9,4.9,43,0.00,,CLR,0.00,VWS V14.01,2013-03-23 04:17:00,
2013-03-22 21:22:00,43.7,23.2,29.96,NNE,25,3.1,4.5,44,0.00,,CLR,0.00,VWS V14.01,2013-03-23 04:22:00,
2013-03-22 21:28:00,43.3,24.0,29.96,NE,37,4.5,4.9,46,0.00,,CLR,0.00,VWS V14.01,2013-03-23 04:28:00,
2013-03-22 21:33:00,43.5,23.6,29.96,NE,38,0.0,0.0,45,0.00,,CLR,0.00,VWS V14.01,2013-03-23 04:33:00,
2013-03-22 21:38:00,43.2,23.8,29.96,NE,38,0.0,0.0,46,0.00,,CLR,0.00,VWS V14.01,2013-03-23 04:38:00,
2013-03-22 21:43:00,42.8,23.5,29.96,NE,39,4.5,4.5,46,0.00,,CLR,0.00,VWS V14.01,2013-03-23 04:43:00,
2013-03-22 21:48:00,42.4,23.6,29.96,East,94,4.0,6.3,47,0.00,,CLR,0.00,VWS V14.01,2013-03-23 04:48:00,
2013-03-22 21:53:00,42.1,23.8,29.96,East,94,4.9,4.9,48,0.00,,CLR,0.00,VWS V14.01,2013-03-23 04:53:00,
2013-03-22 21:58:00,41.7,24.0,29.96,East,95,4.0,5.4,49,0.00,,CLR,0.00,VWS V14.01,2013-03-23 04:58:00,
2013-03-22 22:04:00,41.2,24.4,29.96,East,94,4.9,4.9,51,0.00,,CLR,0.00,VWS V14.01,2013-03-23 05:04:00,
2013-03-22 22:09:00,41.0,24.3,29.96,East,97,4.9,5.8,51,0.00,,CLR,0.00,VWS V14.01,2013-03-23 05:09:00,
2013-03-22 22:14:00,40.6,24.4,29.96,East,98,5.4,6.3,52,0.00,,CLR,0.00,VWS V14.01,2013-03-23 05:14:00,
2013-03-22 22:19:00,40.6,24.9,29.96,ESE,105,4.5,5.4,53,0.00,,CLR,0.00,VWS V14.01,2013-03-23 05:19:00,
2013-03-22 22:24:00,39.9,24.6,29.96,ESE,105,4.5,4.9,54,0.00,,CLR,0.00,VWS V14.01,2013-03-23 05:24:00,
2013-03-22 22:29:00,39.9,24.6,29.96,ESE,105,4.9,5.4,54,0.00,,CLR,0.00,VWS V14.01,2013-03-23 05:29:00,
2013-03-22 22:34:00,40.1,24.8,29.96,ESE,106,4.5,4.9,54,0.00,,CLR,0.00,VWS V14.01,2013-03-23 05:34:00,
2013-03-22 22:39:00,40.1,24.8,29.96,ESE,106,4.5,5.8,54,0.00,,CLR,0.00,VWS V14.01,2013-03-23 05:39:00,
2013-03-22 22:44:00,39.9,24.6,29.96,ESE,106,4.5,4.9,54,0.00,,CLR,0.00,VWS V14.01,2013-03-23 05:44:00,
2013-03-22 22:49:00,39.4,24.6,29.96,ESE,106,4.9,4.9,55,0.00,,CLR,0.00,VWS V14.01,2013-03-23 05:49:00,
2013-03-22 22:54:00,39.0,25.1,29.96,ESE,106,4.5,5.4,57,0.00,,CLR,0.00,VWS V14.01,2013-03-23 05:54:00,
2013-03-22 22:59:00,38.5,25.0,29.96,ESE,106,4.5,5.4,58,0.00,,CLR,0.00,VWS V14.01,2013-03-23 05:59:00,
2013-03-22 23:04:00,38.3,25.2,29.96,ESE,106,5.4,5.4,59,0.00,,CLR,0.00,VWS V14.01,2013-03-23 06:04:00,
2013-03-22 23:09:00,37.9,25.3,29.96,ESE,107,4.5,4.5,60,0.00,,CLR,0.00,VWS V14.01,2013-03-23 06:09:00,
2013-03-22 23:15:00,37.9,26.1,29.96,ESE,107,4.0,5.4,62,0.00,,CLR,0.00,VWS V14.01,2013-03-23 06:15:00,
2013-03-22 23:20:00,37.8,25.9,29.96,ESE,105,4.5,4.9,62,0.00,,CLR,0.00,VWS V14.01,2013-03-23 06:20:00,
2013-03-22 23:25:00,37.8,25.9,29.96,ESE,106,3.6,5.4,62,0.00,,CLR,0.00,VWS V14.01,2013-03-23 06:25:00,
2013-03-22 23:30:00,37.6,25.8,29.96,ESE,106,4.5,4.9,62,0.00,,CLR,0.00,VWS V14.01,2013-03-23 06:30:00,
2013-03-22 23:35:00,37.4,25.6,29.96,ESE,106,4.5,4.9,62,0.00,,CLR,0.00,VWS V14.01,2013-03-23 06:35:00,
2013-03-22 23:40:00,37.4,25.6,29.96,ESE,107,4.5,4.9,62,0.00,,CLR,0.00,VWS V14.01,2013-03-23 06:40:00,
2013-03-22 23:45:00,37.0,25.6,29.96,ESE,106,4.5,4.5,63,0.00,,CLR,0.00,VWS V14.01,2013-03-23 06:45:00,
2013-03-22 23:50:00,37.0,26.4,29.96,ESE,106,4.9,4.9,65,0.00,,CLR,0.00,VWS V14.01,2013-03-23 06:50:00,
2013-03-22 23:55:00,36.7,26.0,29.96,ESE,106,4.0,4.5,65,0.00,,CLR,0.00,VWS V14.01,2013-03-23 06:55:00,